Fairmount Springs, Pennsylvania
Current Conditions -  °F | °C
As of 11:55 PM on Monday 22 Dec 2014 (Local Time) from KHZL Reporting Station
Light Rain Light Rain  
Wind Chill: 30°   Ceiling: 400
Heat Index: 37°   Visibility: 7mi
Dew Point: 37°   Wind: 12mph
Humidity: 100%   Direction: 110°ESE
Pressure: 30.08"   Gusts: 21mph
Location:  41.2534°N, 76.3299°W
Report Text: KHZL 230455Z AUTO 11010G18KT 7SM -RA OVC004 03/03 A3008 RMK AO2
Loading
Personal Weather Stations






























Interactive Weather Map New forecast layout! Learn more

10-Day Weather Forecast

Advertisements
Track Severe Weather on mobile